Latest Weather Observations for Mount Boyce

IDN60801

Issued at 6:32 pm EDT Friday 9 December 2016 (issued every 30 minutes, with the page automatically refreshed every 10 minutes)

About weather observations | Map of weather stations | Latest weather observations for NSW | Other Formats
Station Details ID: 063292 Name: MOUNT BOYCE AWS Lat: -33.62 Lon: 150.27 Height: 1080.0 m
Data from the previous 72 hours. | See also: Recent months at Mount Boyce
Date/Time
EDT
Temp
°C
App
Temp
°C
Dew
Point
°C
Rel
Hum
%
Delta-T
°C
Wind Press
QNH
hPa
Press
MSL
hPa
Rain since
9am
mm
Dir  Spd
km/h
Gust
km/h
Spd
kts
Gust
kts
09/06:30pm 16.3 10.1 -0.4 32 7.5 WSW 22 33 12 18 - - 0.0
09/06:00pm 16.7 10.1 -0.1 32 7.7 WSW 24 37 13 20 - - 0.0
09/05:30pm 16.7 9.5 0.4 33 7.5 WSW 28 43 15 23 - - 0.0
09/05:00pm 17.0 9.8 0.6 33 7.6 WSW 28 46 15 25 - - 0.0
09/04:30pm 16.6 8.5 0.7 34 7.4 WSW 33 54 18 29 - - 0.0
09/04:06pm 16.2 8.8 -0.5 32 7.5 WSW 28 50 15 27 - - 0.0
09/04:00pm 16.7 9.5 0.8 34 7.4 WSW 28 44 15 24 - - 0.0
09/03:32pm 16.1 8.1 0.3 34 7.2 WSW 32 50 17 27 - - 0.0
09/03:30pm 16.1 8.1 0.3 34 7.2 WSW 32 43 17 23 - - 0.0
09/03:06pm 15.9 8.0 0.9 36 6.9 WSW 32 50 17 27 - - 0.0
09/03:00pm 15.7 7.5 0.3 35 7.0 WSW 33 50 18 27 - - 0.0
09/02:30pm 16.4 8.8 2.8 40 6.6 WSW 32 54 17 29 - - 0.0
09/02:00pm 14.8 6.9 1.3 40 6.2 WSW 32 50 17 27 - - 0.0
09/01:30pm 14.8 6.7 1.0 39 6.3 WSW 33 57 18 31 - - 0.0
09/01:00pm 13.6 5.4 0.6 41 5.9 WSW 33 57 18 31 - - 0.0
09/12:35pm 13.3 5.5 1.6 45 5.4 WSW 32 50 17 27 - - 0.0
09/12:30pm 13.6 6.2 1.9 45 5.4 WSW 30 44 16 24 - - 0.0
09/12:00pm 12.5 4.1 1.8 48 4.9 WSW 35 61 19 33 - - 0.0
09/11:30am 11.7 4.8 2.5 53 4.2 WSW 28 46 15 25 - - 0.0
09/11:06am 11.8 3.9 2.3 52 4.4 WSW 33 52 18 28 - - 0.0
09/11:00am 11.9 3.7 2.6 53 4.3 WSW 35 52 19 28 - - 0.0
09/10:30am 11.6 4.1 3.4 57 3.9 WSW 32 56 17 30 - - 0.0
09/10:00am 10.0 1.4 2.4 59 3.5 WSW 37 57 20 31 - - 0.0
09/09:30am 9.6 1.8 2.9 63 3.1 WSW 33 52 18 28 - - 0.0
09/09:00am 10.1 3.0 3.6 64 3.0 WSW 30 50 16 27 - - 0.0
09/08:30am 9.2 0.6 2.8 64 2.9 WSW 37 57 20 31 - - 0.0
09/08:00am 8.6 0.9 3.4 70 2.4 WSW 33 54 18 29 - - 0.0
09/07:48am 8.2 1.0 3.1 70 2.3 WSW 30 48 16 26 - - 0.0
09/07:30am 8.2 0.7 3.5 72 2.2 WSW 32 48 17 26 - - 0.0
09/07:03am 8.1 0.4 3.6 73 2.1 WSW 33 52 18 28 - - 0.0
09/07:00am 8.0 -0.1 3.5 73 2.1 WSW 35 50 19 27 - - 0.0
09/06:30am 7.7 0.3 3.9 77 1.8 WSW 32 52 17 28 - - 0.0
09/06:00am 7.6 -0.4 4.0 78 1.7 WSW 35 56 19 30 - - 0.0
09/05:30am 7.7 -0.7 3.7 76 1.8 WSW 37 63 20 34 - - 0.0
09/05:00am 8.0 0.0 3.7 74 2.0 WSW 35 69 19 37 - - 0.0
09/04:30am 8.8 0.9 4.4 74 2.1 W 35 59 19 32 - - 0.0
09/04:00am 9.0 -0.6 4.2 72 2.3 WSW 44 67 24 36 - - 0.0
09/03:30am 9.3 0.4 4.9 74 2.1 WSW 41 63 22 34 - - 0.0
09/03:00am 9.6 2.3 5.4 75 2.0 WSW 33 54 18 29 - - 0.0
09/02:30am 9.6 1.2 5.4 75 2.0 WSW 39 59 21 32 - - 0.0
09/02:00am 9.8 1.4 5.6 75 2.0 WSW 39 57 21 31 - - 0.0
09/01:30am 10.3 1.3 4.7 68 2.7 WSW 41 59 22 32 - - 0.0
09/01:00am 10.4 2.5 4.5 67 2.8 WSW 35 56 19 30 - - 0.0
09/12:31am 10.7 2.4 5.9 72 2.4 WSW 39 57 21 31 - - 0.0
09/12:30am 10.7 2.0 5.9 72 2.4 WSW 41 57 22 31 - - 0.0
09/12:20am 10.8 3.3 6.2 73 2.3 WSW 35 54 19 29 - - 0.0
09/12:17am 10.9 3.4 6.5 74 2.2 WSW 35 52 19 28 - - 0.0
09/12:00am 11.4 4.9 8.1 80 1.7 WSW 32 50 17 27 - - 0.0
 
Date/Time
EDT
Temp
°C
App
Temp
°C
Dew
Point
°C
Rel
Hum
%
Delta-T
°C
Wind Press
QNH
hPa
Press
MSL
hPa
Rain since
9am
mm
Dir  Spd
km/h
Gust
km/h
Spd
kts
Gust
kts
08/11:33pm 14.6 9.6 12.3 86 1.3 WSW 30 67 16 36 - - 0.0
08/11:30pm 15.1 10.8 13.1 88 1.2 WSW 28 46 15 25 - - 0.0
08/11:00pm 15.5 10.4 13.0 85 1.5 W 32 50 17 27 - - 0.0
08/10:53pm 15.4 10.2 12.9 85 1.5 W 32 50 17 27 - - 0.0
08/10:46pm 15.5 10.1 12.8 84 1.6 W 33 44 18 24 - - 0.0
08/10:30pm 15.9 10.8 13.0 83 1.7 W 32 52 17 28 - - 0.0
08/10:00pm 16.1 11.0 13.2 83 1.7 WSW 32 54 17 29 - - 0.0
08/09:30pm 17.0 11.5 12.5 75 2.6 WSW 33 52 18 28 - - 0.0
08/09:02pm 18.3 13.6 12.1 67 3.6 W 28 48 15 26 - - 0.0
08/09:00pm 18.3 14.4 12.1 67 3.6 W 24 48 13 26 - - 0.0
08/08:30pm 18.8 14.0 11.6 63 4.2 WSW 28 46 15 25 - - 0.0
08/08:00pm 20.4 14.1 11.1 55 5.4 WSW 35 65 19 35 - - 0.0
08/07:54pm 21.1 16.3 11.7 55 5.5 W 28 65 15 35 - - 0.0
08/07:30pm 24.6 21.0 9.7 39 8.6 W 19 30 10 16 - - 0.0
08/07:00pm 25.7 21.8 9.5 36 9.3 W 20 37 11 20 - - 0.0
08/06:30pm 25.9 21.2 9.3 35 9.5 WNW 24 39 13 21 - - 0.0
08/06:00pm 26.3 22.4 9.6 35 9.7 WNW 20 39 11 21 - - 0.0
08/05:30pm 27.2 21.8 9.5 33 10.3 W 28 48 15 26 - - 0.0
08/05:26pm 27.1 21.6 9.0 32 10.4 W 28 48 15 26 - - 0.0
08/05:00pm 26.8 21.6 8.7 32 10.4 W 26 44 14 24 - - 0.0
08/04:30pm 27.7 24.0 10.0 33 10.4 WNW 20 39 11 21 - - 0.0
08/04:00pm 27.3 23.4 9.6 33 10.3 WNW 20 35 11 19 - - 0.0
08/03:34pm 26.5 20.5 8.5 32 10.2 WNW 30 52 16 28 - - 0.0
08/03:30pm 27.8 22.3 10.5 34 10.2 W 30 52 16 28 - - 0.0
08/03:00pm 27.1 22.1 9.5 33 10.2 W 26 52 14 28 - - 0.0
08/02:30pm 26.2 20.9 10.0 36 9.4 WNW 28 50 15 27 - - 0.0
08/02:29pm 26.0 20.6 9.4 35 9.6 WNW 28 50 15 27 - - 0.0
08/02:00pm 26.3 22.2 11.6 40 8.8 WNW 24 41 13 22 - - 0.0
08/01:42pm 25.5 20.5 10.9 40 8.6 WNW 28 54 15 29 - - 0.0
08/01:30pm 24.9 21.8 12.2 45 7.6 WNW 20 35 11 19 - - 0.0
08/01:00pm 24.3 20.0 11.9 45 7.4 WNW 26 43 14 23 - - 0.0
08/12:56pm 24.1 19.3 11.8 46 7.3 WNW 28 46 15 25 - - 0.0
08/12:30pm 24.6 22.0 13.2 49 6.9 WNW 19 32 10 17 - - 0.0
08/12:00pm 24.1 21.8 13.0 50 6.7 NW 17 30 9 16 - - 0.0
08/11:30am 23.9 21.5 13.7 53 6.2 WNW 19 39 10 21 - - 0.0
08/11:00am 22.4 19.7 13.5 57 5.4 WNW 20 35 11 19 - - 0.0
08/10:30am 21.2 18.7 14.1 64 4.3 WNW 20 39 11 21 - - 0.0
08/10:00am 21.3 19.0 14.0 63 4.4 NW 19 32 10 17 - - 0.0
08/09:30am 21.7 21.7 15.3 67 4.0 WNW 9 19 5 10 - - 0.0
08/09:00am 20.9 20.2 15.4 71 3.4 NW 13 28 7 15 - - 0.0
08/08:30am 19.8 18.1 14.8 73 3.1 N 17 24 9 13 - - 0.0
08/08:00am 18.8 17.0 14.5 76 2.6 N 17 30 9 16 - - 0.0
08/07:30am 17.5 16.2 13.8 79 2.2 N 13 22 7 12 - - 0.0
08/07:00am 16.1 15.5 13.6 85 1.5 NNW 9 19 5 10 - - 0.0
08/06:39am 14.9 14.0 13.8 93 0.7 NNW 11 19 6 10 - - 0.0
08/06:30am 13.7 13.4 13.2 97 0.3 WNW 7 11 4 6 - - 0.0
08/06:00am 13.2 12.7 12.6 96 0.3 WSW 7 9 4 5 - - 0.0
08/05:54am 13.2 12.7 12.6 96 0.3 W 7 9 4 5 - - 0.0
08/05:35am 13.7 13.5 13.1 96 0.3 NNW 6 13 3 7 - - 0.0
08/05:34am 13.7 13.3 13.1 96 0.3 NNW 7 13 4 7 - - 0.0
08/05:30am 13.8 13.5 13.3 97 0.3 N 7 13 4 7 - - 0.0
08/05:00am 13.4 12.3 13.2 99 0.1 NE 11 22 6 12 - - 0.0
08/04:30am 13.5 12.8 13.2 98 0.2 NE 9 13 5 7 - - 0.0
08/04:17am 13.3 12.5 12.8 97 0.3 NE 9 11 5 6 - - 0.0
08/04:05am 13.7 13.3 13.1 96 0.3 NNW 7 9 4 5 - - 0.0
08/04:00am 14.0 13.9 13.4 96 0.4 NW 6 7 3 4 - - 0.0
08/03:48am 13.6 13.3 12.8 95 0.5 WNW 6 9 3 5 - - 0.0
08/03:30am 13.7 13.3 12.9 95 0.5 NW 7 9 4 5 - - 0.0
08/03:00am 13.9 13.6 13.3 96 0.3 NNE 7 9 4 5 - - 0.0
08/02:49am 14.0 13.7 13.4 96 0.4 N 7 9 4 5 - - 0.0
08/02:30am 14.0 13.4 13.5 97 0.3 NE 9 15 5 8 - - 0.0
08/02:00am 14.3 13.8 13.8 97 0.3 NE 9 15 5 8 - - 0.0
08/01:30am 14.5 14.1 14.0 97 0.3 ENE 9 17 5 9 - - 0.0
08/01:00am 14.5 14.1 14.2 98 0.2 ENE 9 17 5 9 - - 0.0
08/12:30am 14.4 14.0 14.1 98 0.2 NE 9 15 5 8 - - 0.0
08/12:00am 14.5 13.7 14.0 97 0.3 NE 11 17 6 9 - - 0.0
 
Date/Time
EDT
Temp
°C
App
Temp
°C
Dew
Point
°C
Rel
Hum
%
Delta-T
°C
Wind Press
QNH
hPa
Press
MSL
hPa
Rain since
9am
mm
Dir  Spd
km/h
Gust
km/h
Spd
kts
Gust
kts
07/11:49pm 14.3 13.4 13.7 96 0.4 NE 11 19 6 10 - - 0.0
07/11:40pm 14.2 12.9 13.6 96 0.4 NE 13 19 7 10 - - 0.0
07/11:30pm 14.3 13.3 13.5 95 0.5 NE 11 19 6 10 - - 0.0
07/11:00pm 15.2 15.4 14.6 96 0.4 ENE 7 13 4 7 - - 0.0
07/10:30pm 15.3 15.0 14.5 95 0.5 ENE 9 13 5 7 - - 0.0
07/10:00pm 15.3 15.0 14.5 95 0.5 ENE 9 15 5 8 - - 0.0
07/09:30pm 15.4 15.1 14.4 94 0.6 ENE 9 17 5 9 - - 0.0
07/09:00pm 15.7 15.5 14.6 93 0.7 ENE 9 17 5 9 - - 0.0
07/08:30pm 16.0 15.7 14.5 91 0.9 ENE 9 17 5 9 - - 0.0
07/08:27pm 15.9 15.6 14.4 91 0.9 ENE 9 17 5 9 - - 0.0
07/08:00pm 16.4 16.0 14.1 86 1.4 ENE 9 17 5 9 - - 0.0
07/07:30pm 18.1 17.4 14.2 78 2.4 ENE 11 19 6 10 - - 0.0
07/07:14pm 18.9 18.3 14.6 76 2.6 ENE 11 17 6 9 - - 0.0
07/07:00pm 18.7 18.3 14.2 75 2.7 ENE 9 17 5 9 - - 0.0
07/06:30pm 20.0 19.9 15.0 73 3.1 ENE 9 20 5 11 - - 0.0
07/06:00pm 20.1 19.2 13.8 67 3.8 ENE 11 22 6 12 - - 0.0
07/05:30pm 21.3 20.3 14.7 66 4.1 ENE 13 26 7 14 - - 0.0
07/05:00pm 20.3 19.3 13.5 65 4.1 ENE 11 20 6 11 - - 0.0
07/04:30pm 21.1 20.4 13.3 61 4.7 ENE 9 22 5 12 - - 0.0
07/04:00pm 22.1 20.8 12.4 54 5.8 NE 11 20 6 11 - - 0.0
07/03:30pm 20.4 19.2 12.9 62 4.5 ENE 11 22 6 12 - - 0.0
07/03:00pm 21.6 20.3 12.5 56 5.4 NE 11 20 6 11 - - 0.0
07/02:30pm 21.3 21.1 13.5 61 4.7 ENE 7 17 4 9 - - 0.0
07/02:00pm 21.0 19.7 12.4 58 5.1 ENE 11 19 6 10 - - 0.0
07/01:30pm 20.5 18.7 12.0 58 5.0 NE 13 20 7 11 - - 0.0
07/01:00pm 20.7 20.2 11.9 57 5.2 NE 6 11 3 6 - - 0.0
07/12:30pm 20.5 19.3 11.7 57 5.1 ENE 9 17 5 9 - - 0.0
07/12:00pm 18.5 17.7 11.1 62 4.2 E 6 9 3 5 - - 0.0
07/11:30am 17.9 16.8 10.5 62 4.2 SE 7 11 4 6 - - 0.0
07/11:00am 18.7 17.7 11.0 61 4.4 NE 7 13 4 7 - - 0.0
07/10:30am 18.0 16.7 11.1 64 3.9 NE 9 17 5 9 - - 0.0
07/10:00am 16.6 15.9 11.5 72 2.9 E 6 11 3 6 - - 0.0
07/09:30am 15.5 14.8 11.3 76 2.4 ENE 6 13 3 7 - - 0.0
07/09:00am 15.5 15.6 11.5 77 2.3 NE 2 9 1 5 - - 9.0
07/08:30am 14.5 13.3 10.3 76 2.3 SE 7 13 4 7 - - 9.0
07/08:00am 13.3 12.2 9.9 80 1.9 S 6 11 3 6 - - 9.0
07/07:30am 12.5 11.0 9.1 80 1.8 S 7 11 4 6 - - 9.0
07/07:00am 11.9 10.4 9.3 84 1.4 SSE 7 11 4 6 - - 9.0
07/06:30am 11.1 9.9 9.4 89 0.9 SE 6 11 3 6 - - 9.0
07/06:00am 10.9 9.6 9.8 93 0.6 SE 7 13 4 7 - - 9.0
07/05:43am 11.2 10.1 10.7 97 0.3 E 7 13 4 7 - - 9.0
07/05:30am 11.1 10.2 10.5 96 0.3 S 6 9 3 5 - - 9.0
07/05:14am 11.4 10.9 10.9 97 0.3 S 4 7 2 4 - - 9.0
07/05:00am 11.5 10.2 11.2 98 0.2 SSW 9 13 5 7 - - 9.0
07/04:41am 11.9 10.6 11.4 97 0.3 SSW 9 13 5 7 - - 9.0
07/04:38am 11.8 10.5 11.3 97 0.3 SSW 9 13 5 7 - - 9.0
07/04:30am 12.2 12.1 12.0 99 0.1 E 4 9 2 5 - - 9.0
07/04:22am 12.4 11.8 12.2 99 0.1 ENE 7 9 4 5 - - 9.0
07/04:15am 12.5 11.9 12.3 99 0.1 NE 7 9 4 5 - - 9.0
07/04:00am 12.5 11.9 12.3 99 0.1 NE 7 11 4 6 - - 9.0
07/03:39am 12.5 11.1 12.2 98 0.2 NE 11 15 6 8 - - 8.8
07/03:30am 12.6 12.6 12.3 98 0.2 NE 4 11 2 6 - - 8.8
07/03:29am 12.6 12.6 12.3 98 0.2 NNE 4 9 2 5 - - 8.8
07/03:28am 12.5 12.4 12.0 97 0.3 NNE 4 9 2 5 - - 8.8
07/03:16am 12.1 12.7 11.9 99 0.1 CALM 0 0 0 0 - - 8.8
07/03:00am 12.2 12.1 12.0 99 0.1 W 4 7 2 4 - - 8.8
07/02:30am 12.6 11.6 12.4 99 0.1 SW 9 13 5 7 - - 8.4
07/02:00am 12.8 11.5 12.5 98 0.2 SW 11 13 6 7 - - 7.2
07/01:30am 13.3 11.8 13.0 98 0.2 SW 13 19 7 10 - - 5.6
07/01:23am 13.6 12.2 13.3 98 0.2 WSW 13 17 7 9 - - 5.2
07/01:00am 13.5 12.4 13.0 97 0.3 WSW 11 15 6 8 - - 3.8
07/12:30am 13.9 13.3 13.6 98 0.2 WSW 9 11 5 6 - - 3.4
07/12:25am 13.9 13.3 13.4 97 0.3 WSW 9 13 5 7 - - 3.4
07/12:00am 14.0 14.7 13.5 97 0.3 W 2 6 1 3 - - 3.4
 
Date/Time
EDT
Temp
°C
App
Temp
°C
Dew
Point
°C
Rel
Hum
%
Delta-T
°C
Wind Press
QNH
hPa
Press
MSL
hPa
Rain since
9am
mm
Dir  Spd
km/h
Gust
km/h
Spd
kts
Gust
kts
06/11:42pm 14.0 14.0 13.5 97 0.3 WSW 6 9 3 5 - - 3.2
06/11:30pm 14.0 13.4 13.5 97 0.3 SW 9 11 5 6 - - 3.2
06/11:26pm 14.0 13.4 13.5 97 0.3 SW 9 13 5 7 - - 3.2
06/11:00pm 14.2 13.0 13.9 98 0.2 WSW 13 19 7 10 - - 3.2
06/10:36pm 14.5 12.9 14.0 97 0.3 SW 15 19 8 10 - - 2.8
06/10:30pm 14.6 13.4 14.0 96 0.4 SW 13 19 7 10 - - 2.8
06/10:25pm 14.7 13.2 14.1 96 0.4 SW 15 19 8 10 - - 2.6
06/10:06pm 15.1 13.9 14.1 94 0.6 WSW 13 22 7 12 - - 2.4
06/10:00pm 15.1 13.6 14.1 94 0.6 WSW 15 22 8 12 - - 2.4
06/09:58pm 15.1 13.6 14.3 95 0.5 WSW 15 22 8 12 - - 2.4
06/09:44pm 15.3 13.8 14.3 94 0.6 WSW 15 20 8 11 - - 2.4
06/09:32pm 15.5 14.0 14.2 92 0.8 WSW 15 22 8 12 - - 2.2
06/09:30pm 15.6 14.1 14.3 92 0.8 WSW 15 22 8 12 - - 2.2
06/09:00pm 15.9 14.0 14.3 90 1.0 WSW 17 24 9 13 - - 2.2
06/08:30pm 15.8 14.0 14.5 92 0.8 W 17 22 9 12 - - 2.2
06/08:00pm 16.1 13.7 14.5 90 1.0 W 20 30 11 16 - - 2.2
06/07:30pm 16.3 14.5 14.5 89 1.1 W 17 22 9 12 - - 2.2
06/07:00pm 16.5 14.6 14.2 86 1.4 W 17 22 9 12 - - 2.2

Other Formats:

Comma delimited format used in spreadsheet applications
http://www.bom.gov.au/fwo/IDN60801/IDN60801.94743.axf

JavaScript Object Notation format (JSON) in row-major order
http://www.bom.gov.au/fwo/IDN60801/IDN60801.94743.json